Terminal Aerodrome Forecast
Issued by NWS

Home | Current Version | Previous Version | Text Only | Print | Product List | Glossary On
Versions: 1 2 3 4 5 6 7 8 9 10 11 12 13
000
FTAK31 PAJN 280520
TAFAWG
TAF
PAWG 280520Z 2806/2906 10005KT 6SM -RA BR FEW008 SCT025 OVC035
     FM281000 12006KT 4SM -RA BR SCT015 OVC025
     FM281600 12005KT 6SM -SHRA SCT015 OVC025
     FM282200 VRB04KT P6SM VCSH SCT025 OVC040
      AMD LTD TO CLD VIS AND WIND 2806/2815=

USA.gov is the U.S. government's official web portal to all federal, state and local government web resources and services.